Terminal Aerodrome Forecast
Issued by NWS Central Illinois

Current Version | Previous Version | Text Only | Print | Product List | Glossary On
Versions: 1 2 3 4 5 6 7 8 9 10 11 12 13 14 15 16 17 18
000
FTUS43 KILX 201100
TAFSPI
TAF
KSPI 201140Z 2012/2112 15003KT 6SM HZ SCT015 OVC045
     FM201600 16006KT P6SM SCT012 OVC035
     FM202100 15007KT P6SM OVC025
     FM210200 16006KT P6SM BKN020 OVC050=

USA.gov is the U.S. government's official web portal to all federal, state and local government web resources and services.